sensor_id;sensor_type;location;lat;lon;timestamp;P1;durP1;ratioP1;P2;durP2;ratioP2
59830;SDS011;45711;50.108;13.712;2022-10-31T00:00:44;66.03;;;24.35;;
59830;SDS011;45711;50.108;13.712;2022-10-31T00:03:10;52.15;;;23.88;;
59830;SDS011;45711;50.108;13.712;2022-10-31T00:05:42;46.72;;;22.95;;
59830;SDS011;45711;50.108;13.712;2022-10-31T00:08:08;43.08;;;21.88;;
59830;SDS011;45711;50.108;13.712;2022-10-31T00:10:36;50.55;;;23.00;;
59830;SDS011;45711;50.108;13.712;2022-10-31T00:13:07;49.05;;;23.10;;
59830;SDS011;45711;50.108;13.712;2022-10-31T00:15:34;48.50;;;22.17;;
59830;SDS011;45711;50.108;13.712;2022-10-31T00:18:07;49.63;;;23.60;;
59830;SDS011;45711;50.108;13.712;2022-10-31T00:20:34;38.40;;;21.45;;
59830;SDS011;45711;50.108;13.712;2022-10-31T00:23:02;47.72;;;22.73;;
59830;SDS011;45711;50.108;13.712;2022-10-31T00:25:29;46.53;;;22.35;;
59830;SDS011;45711;50.108;13.712;2022-10-31T00:27:58;38.15;;;22.10;;
59830;SDS011;45711;50.108;13.712;2022-10-31T00:30:28;41.72;;;22.80;;
59830;SDS011;45711;50.108;13.712;2022-10-31T00:32:54;38.35;;;21.73;;
59830;SDS011;45711;50.108;13.712;2022-10-31T00:35:23;45.45;;;21.17;;
59830;SDS011;45711;50.108;13.712;2022-10-31T00:37:51;44.25;;;22.70;;
59830;SDS011;45711;50.108;13.712;2022-10-31T00:40:23;41.17;;;22.77;;
59830;SDS011;45711;50.108;13.712;2022-10-31T00:42:49;56.08;;;27.75;;
59830;SDS011;45711;50.108;13.712;2022-10-31T00:45:24;63.30;;;28.73;;
59830;SDS011;45711;50.108;13.712;2022-10-31T00:47:59;59.15;;;28.08;;
59830;SDS011;45711;50.108;13.712;2022-10-31T00:50:27;53.60;;;26.77;;
59830;SDS011;45711;50.108;13.712;2022-10-31T00:52:53;47.40;;;22.85;;
59830;SDS011;45711;50.108;13.712;2022-10-31T00:55:21;55.13;;;26.00;;
59830;SDS011;45711;50.108;13.712;2022-10-31T00:57:48;60.13;;;29.30;;
59830;SDS011;45711;50.108;13.712;2022-10-31T01:00:19;54.05;;;24.77;;
59830;SDS011;45711;50.108;13.712;2022-10-31T01:02:45;48.65;;;24.08;;
59830;SDS011;45711;50.108;13.712;2022-10-31T01:05:11;50.33;;;24.98;;
59830;SDS011;45711;50.108;13.712;2022-10-31T01:07:39;55.45;;;24.38;;
59830;SDS011;45711;50.108;13.712;2022-10-31T01:10:10;45.70;;;22.38;;
59830;SDS011;45711;50.108;13.712;2022-10-31T01:12:39;48.90;;;22.88;;
59830;SDS011;45711;50.108;13.712;2022-10-31T01:15:08;46.75;;;23.60;;
59830;SDS011;45711;50.108;13.712;2022-10-31T01:17:38;44.83;;;22.17;;
59830;SDS011;45711;50.108;13.712;2022-10-31T01:20:12;42.67;;;21.65;;
59830;SDS011;45711;50.108;13.712;2022-10-31T01:22:48;55.88;;;23.40;;
59830;SDS011;45711;50.108;13.712;2022-10-31T01:25:16;57.03;;;25.38;;
59830;SDS011;45711;50.108;13.712;2022-10-31T01:27:51;45.60;;;23.50;;
59830;SDS011;45711;50.108;13.712;2022-10-31T01:30:17;45.60;;;23.33;;
59830;SDS011;45711;50.108;13.712;2022-10-31T01:32:43;49.95;;;23.83;;
59830;SDS011;45711;50.108;13.712;2022-10-31T01:35:11;47.70;;;23.90;;
59830;SDS011;45711;50.108;13.712;2022-10-31T01:37:39;52.25;;;25.42;;
59830;SDS011;45711;50.108;13.712;2022-10-31T01:40:11;72.25;;;29.13;;
59830;SDS011;45711;50.108;13.712;2022-10-31T01:42:39;56.95;;;28.60;;
59830;SDS011;45711;50.108;13.712;2022-10-31T01:45:09;53.97;;;26.38;;
59830;SDS011;45711;50.108;13.712;2022-10-31T01:47:37;42.97;;;21.60;;
59830;SDS011;45711;50.108;13.712;2022-10-31T01:50:28;47.95;;;23.48;;
59830;SDS011;45711;50.108;13.712;2022-10-31T01:52:58;38.80;;;21.40;;
59830;SDS011;45711;50.108;13.712;2022-10-31T01:55:28;36.67;;;19.98;;
59830;SDS011;45711;50.108;13.712;2022-10-31T01:57:58;33.28;;;18.98;;
59830;SDS011;45711;50.108;13.712;2022-10-31T02:00:32;37.25;;;19.70;;
59830;SDS011;45711;50.108;13.712;2022-10-31T02:02:58;53.90;;;23.90;;
59830;SDS011;45711;50.108;13.712;2022-10-31T02:05:29;44.03;;;24.38;;
59830;SDS011;45711;50.108;13.712;2022-10-31T02:07:59;47.70;;;23.63;;
59830;SDS011;45711;50.108;13.712;2022-10-31T02:10:32;50.03;;;25.33;;
59830;SDS011;45711;50.108;13.712;2022-10-31T02:15:29;44.47;;;23.20;;
59830;SDS011;45711;50.108;13.712;2022-10-31T02:17:58;49.05;;;25.33;;
59830;SDS011;45711;50.108;13.712;2022-10-31T02:20:32;41.45;;;22.40;;
59830;SDS011;45711;50.108;13.712;2022-10-31T02:32:26;39.10;;;21.33;;
59830;SDS011;45711;50.108;13.712;2022-10-31T02:35:02;43.58;;;22.65;;
59830;SDS011;45711;50.108;13.712;2022-10-31T02:37:41;51.95;;;23.08;;
59830;SDS011;45711;50.108;13.712;2022-10-31T02:40:20;44.35;;;21.50;;
59830;SDS011;45711;50.108;13.712;2022-10-31T02:43:17;40.35;;;20.58;;
59830;SDS011;45711;50.108;13.712;2022-10-31T02:48:14;37.47;;;19.13;;
59830;SDS011;45711;50.108;13.712;2022-10-31T02:50:45;36.97;;;18.63;;
59830;SDS011;45711;50.108;13.712;2022-10-31T02:53:16;35.33;;;18.15;;
59830;SDS011;45711;50.108;13.712;2022-10-31T02:55:44;35.78;;;19.70;;
59830;SDS011;45711;50.108;13.712;2022-10-31T02:58:17;37.47;;;19.63;;
59830;SDS011;45711;50.108;13.712;2022-10-31T03:00:58;39.40;;;20.67;;
59830;SDS011;45711;50.108;13.712;2022-10-31T03:03:48;35.10;;;19.13;;
59830;SDS011;45711;50.108;13.712;2022-10-31T03:06:25;34.42;;;18.88;;
59830;SDS011;45711;50.108;13.712;2022-10-31T03:09:00;42.33;;;19.50;;
59830;SDS011;45711;50.108;13.712;2022-10-31T03:11:38;38.17;;;19.55;;
59830;SDS011;45711;50.108;13.712;2022-10-31T03:14:12;50.13;;;20.83;;
59830;SDS011;45711;50.108;13.712;2022-10-31T03:16:53;42.92;;;21.23;;
59830;SDS011;45711;50.108;13.712;2022-10-31T03:19:27;40.45;;;20.83;;
59830;SDS011;45711;50.108;13.712;2022-10-31T03:22:00;36.45;;;19.83;;
59830;SDS011;45711;50.108;13.712;2022-10-31T03:24:30;40.90;;;20.85;;
59830;SDS011;45711;50.108;13.712;2022-10-31T03:27:05;43.65;;;20.92;;
59830;SDS011;45711;50.108;13.712;2022-10-31T03:29:44;45.00;;;22.15;;
59830;SDS011;45711;50.108;13.712;2022-10-31T03:32:15;41.30;;;21.40;;
59830;SDS011;45711;50.108;13.712;2022-10-31T03:34:49;41.75;;;20.30;;
59830;SDS011;45711;50.108;13.712;2022-10-31T03:37:17;41.88;;;20.05;;
59830;SDS011;45711;50.108;13.712;2022-10-31T03:39:47;40.58;;;20.98;;
59830;SDS011;45711;50.108;13.712;2022-10-31T03:42:17;38.33;;;19.33;;
59830;SDS011;45711;50.108;13.712;2022-10-31T03:44:48;38.92;;;19.95;;
59830;SDS011;45711;50.108;13.712;2022-10-31T03:47:19;39.53;;;20.30;;
59830;SDS011;45711;50.108;13.712;2022-10-31T03:49:46;40.05;;;21.00;;
59830;SDS011;45711;50.108;13.712;2022-10-31T03:52:17;35.40;;;19.58;;
59830;SDS011;45711;50.108;13.712;2022-10-31T03:54:51;43.38;;;21.15;;
59830;SDS011;45711;50.108;13.712;2022-10-31T03:57:35;43.30;;;21.25;;
59830;SDS011;45711;50.108;13.712;2022-10-31T04:00:19;40.03;;;20.33;;
59830;SDS011;45711;50.108;13.712;2022-10-31T04:02:46;45.15;;;21.80;;
59830;SDS011;45711;50.108;13.712;2022-10-31T04:05:21;42.45;;;21.70;;
59830;SDS011;45711;50.108;13.712;2022-10-31T04:07:52;45.38;;;22.00;;
59830;SDS011;45711;50.108;13.712;2022-10-31T04:10:23;41.33;;;20.80;;
59830;SDS011;45711;50.108;13.712;2022-10-31T04:12:53;38.70;;;19.67;;
59830;SDS011;45711;50.108;13.712;2022-10-31T04:15:27;41.22;;;19.67;;
59830;SDS011;45711;50.108;13.712;2022-10-31T04:17:55;39.90;;;19.38;;
59830;SDS011;45711;50.108;13.712;2022-10-31T04:20:33;36.08;;;19.05;;
59830;SDS011;45711;50.108;13.712;2022-10-31T04:23:16;37.05;;;19.75;;
59830;SDS011;45711;50.108;13.712;2022-10-31T04:25:44;41.63;;;20.45;;
59830;SDS011;45711;50.108;13.712;2022-10-31T04:28:12;36.20;;;19.65;;
59830;SDS011;45711;50.108;13.712;2022-10-31T04:30:44;39.72;;;19.58;;
59830;SDS011;45711;50.108;13.712;2022-10-31T04:33:23;37.40;;;18.85;;
59830;SDS011;45711;50.108;13.712;2022-10-31T04:35:53;39.08;;;19.27;;
59830;SDS011;45711;50.108;13.712;2022-10-31T04:38:18;36.85;;;18.60;;
59830;SDS011;45711;50.108;13.712;2022-10-31T04:40:46;42.05;;;19.48;;
59830;SDS011;45711;50.108;13.712;2022-10-31T04:43:12;37.83;;;18.00;;
59830;SDS011;45711;50.108;13.712;2022-10-31T04:45:38;38.60;;;18.52;;
59830;SDS011;45711;50.108;13.712;2022-10-31T04:48:06;37.08;;;19.85;;
59830;SDS011;45711;50.108;13.712;2022-10-31T04:50:32;39.00;;;18.95;;
59830;SDS011;45711;50.108;13.712;2022-10-31T04:55:42;33.92;;;19.65;;
59830;SDS011;45711;50.108;13.712;2022-10-31T04:58:09;39.78;;;20.75;;
59830;SDS011;45711;50.108;13.712;2022-10-31T05:00:40;40.33;;;19.35;;
59830;SDS011;45711;50.108;13.712;2022-10-31T05:03:06;41.78;;;20.75;;
59830;SDS011;45711;50.108;13.712;2022-10-31T05:06:11;40.15;;;19.95;;
59830;SDS011;45711;50.108;13.712;2022-10-31T05:09:00;38.33;;;20.70;;
59830;SDS011;45711;50.108;13.712;2022-10-31T05:14:28;38.05;;;18.83;;
59830;SDS011;45711;50.108;13.712;2022-10-31T05:17:01;38.28;;;19.70;;
59830;SDS011;45711;50.108;13.712;2022-10-31T05:20:05;42.40;;;20.38;;
59830;SDS011;45711;50.108;13.712;2022-10-31T05:22:35;45.30;;;20.20;;
59830;SDS011;45711;50.108;13.712;2022-10-31T05:28:20;37.00;;;17.92;;
59830;SDS011;45711;50.108;13.712;2022-10-31T05:30:50;36.75;;;19.60;;
59830;SDS011;45711;50.108;13.712;2022-10-31T05:33:30;40.00;;;20.20;;
59830;SDS011;45711;50.108;13.712;2022-10-31T05:36:22;37.97;;;17.33;;
59830;SDS011;45711;50.108;13.712;2022-10-31T05:39:07;36.90;;;17.88;;
59830;SDS011;45711;50.108;13.712;2022-10-31T05:41:36;32.25;;;18.15;;
59830;SDS011;45711;50.108;13.712;2022-10-31T05:46:53;33.20;;;16.95;;
59830;SDS011;45711;50.108;13.712;2022-10-31T05:49:19;29.85;;;16.27;;
59830;SDS011;45711;50.108;13.712;2022-10-31T05:51:47;35.85;;;18.15;;
59830;SDS011;45711;50.108;13.712;2022-10-31T05:54:22;33.25;;;17.35;;
59830;SDS011;45711;50.108;13.712;2022-10-31T05:56:52;39.10;;;18.23;;
59830;SDS011;45711;50.108;13.712;2022-10-31T05:59:33;28.42;;;16.08;;
59830;SDS011;45711;50.108;13.712;2022-10-31T06:02:06;30.17;;;17.13;;
59830;SDS011;45711;50.108;13.712;2022-10-31T06:04:34;32.67;;;17.15;;
59830;SDS011;45711;50.108;13.712;2022-10-31T06:13:12;38.10;;;19.92;;
59830;SDS011;45711;50.108;13.712;2022-10-31T06:18:28;50.92;;;20.73;;
59830;SDS011;45711;50.108;13.712;2022-10-31T06:21:06;52.83;;;19.95;;
59830;SDS011;45711;50.108;13.712;2022-10-31T06:23:41;55.88;;;18.75;;
59830;SDS011;45711;50.108;13.712;2022-10-31T06:26:13;62.45;;;19.70;;
59830;SDS011;45711;50.108;13.712;2022-10-31T06:28:39;65.13;;;19.33;;
59830;SDS011;45711;50.108;13.712;2022-10-31T06:33:49;52.33;;;19.50;;
59830;SDS011;45711;50.108;13.712;2022-10-31T06:36:16;75.80;;;19.75;;
59830;SDS011;45711;50.108;13.712;2022-10-31T06:38:42;67.95;;;19.63;;
59830;SDS011;45711;50.108;13.712;2022-10-31T06:41:08;55.88;;;20.05;;
59830;SDS011;45711;50.108;13.712;2022-10-31T06:43:34;56.15;;;19.00;;
59830;SDS011;45711;50.108;13.712;2022-10-31T06:46:02;44.33;;;18.83;;
59830;SDS011;45711;50.108;13.712;2022-10-31T06:48:30;45.90;;;18.40;;
59830;SDS011;45711;50.108;13.712;2022-10-31T06:50:58;35.95;;;18.05;;
59830;SDS011;45711;50.108;13.712;2022-10-31T06:53:24;41.63;;;18.25;;
59830;SDS011;45711;50.108;13.712;2022-10-31T06:55:50;44.17;;;19.13;;
59830;SDS011;45711;50.108;13.712;2022-10-31T06:58:16;51.72;;;18.52;;
59830;SDS011;45711;50.108;13.712;2022-10-31T07:00:42;65.65;;;19.80;;
59830;SDS011;45711;50.108;13.712;2022-10-31T07:03:11;51.15;;;19.17;;
59830;SDS011;45711;50.108;13.712;2022-10-31T07:05:42;39.88;;;18.63;;
59830;SDS011;45711;50.108;13.712;2022-10-31T07:08:11;34.20;;;17.25;;
59830;SDS011;45711;50.108;13.712;2022-10-31T07:10:38;32.20;;;17.92;;
59830;SDS011;45711;50.108;13.712;2022-10-31T07:13:05;33.42;;;17.45;;
59830;SDS011;45711;50.108;13.712;2022-10-31T07:15:38;31.85;;;16.40;;
59830;SDS011;45711;50.108;13.712;2022-10-31T07:18:14;38.47;;;18.40;;
59830;SDS011;45711;50.108;13.712;2022-10-31T07:20:39;33.63;;;16.40;;
59830;SDS011;45711;50.108;13.712;2022-10-31T07:23:15;31.50;;;17.02;;
59830;SDS011;45711;50.108;13.712;2022-10-31T07:25:41;28.30;;;15.88;;
59830;SDS011;45711;50.108;13.712;2022-10-31T07:28:07;34.67;;;16.42;;
59830;SDS011;45711;50.108;13.712;2022-10-31T07:30:35;32.03;;;16.15;;
59830;SDS011;45711;50.108;13.712;2022-10-31T07:33:01;27.65;;;15.25;;
59830;SDS011;45711;50.108;13.712;2022-10-31T07:35:29;28.13;;;15.70;;
59830;SDS011;45711;50.108;13.712;2022-10-31T07:37:56;31.23;;;15.68;;
59830;SDS011;45711;50.108;13.712;2022-10-31T07:40:32;29.35;;;15.70;;
59830;SDS011;45711;50.108;13.712;2022-10-31T07:43:04;35.65;;;17.20;;
59830;SDS011;45711;50.108;13.712;2022-10-31T07:45:30;40.90;;;16.63;;
59830;SDS011;45711;50.108;13.712;2022-10-31T07:48:17;25.08;;;15.20;;
59830;SDS011;45711;50.108;13.712;2022-10-31T07:51:14;43.92;;;15.57;;
59830;SDS011;45711;50.108;13.712;2022-10-31T07:54:20;41.28;;;18.10;;
59830;SDS011;45711;50.108;13.712;2022-10-31T07:56:50;29.58;;;16.23;;
59830;SDS011;45711;50.108;13.712;2022-10-31T07:59:32;30.25;;;15.13;;
59830;SDS011;45711;50.108;13.712;2022-10-31T08:02:05;30.50;;;14.20;;
59830;SDS011;45711;50.108;13.712;2022-10-31T08:04:43;30.27;;;16.25;;
59830;SDS011;45711;50.108;13.712;2022-10-31T08:07:23;32.83;;;14.60;;
59830;SDS011;45711;50.108;13.712;2022-10-31T08:10:01;31.55;;;14.73;;
59830;SDS011;45711;50.108;13.712;2022-10-31T08:12:41;36.30;;;15.20;;
59830;SDS011;45711;50.108;13.712;2022-10-31T08:15:16;29.70;;;14.65;;
59830;SDS011;45711;50.108;13.712;2022-10-31T08:17:46;28.27;;;14.35;;
59830;SDS011;45711;50.108;13.712;2022-10-31T08:20:22;38.92;;;14.90;;
59830;SDS011;45711;50.108;13.712;2022-10-31T08:23:12;28.92;;;14.45;;
59830;SDS011;45711;50.108;13.712;2022-10-31T08:26:09;36.88;;;14.25;;
59830;SDS011;45711;50.108;13.712;2022-10-31T08:28:38;44.22;;;15.38;;
59830;SDS011;45711;50.108;13.712;2022-10-31T08:31:06;50.80;;;14.82;;
59830;SDS011;45711;50.108;13.712;2022-10-31T08:33:34;36.53;;;14.15;;
59830;SDS011;45711;50.108;13.712;2022-10-31T08:36:00;51.83;;;14.63;;
59830;SDS011;45711;50.108;13.712;2022-10-31T08:38:28;47.83;;;15.00;;
59830;SDS011;45711;50.108;13.712;2022-10-31T08:40:53;51.53;;;16.55;;
59830;SDS011;45711;50.108;13.712;2022-10-31T08:43:22;39.53;;;16.38;;
59830;SDS011;45711;50.108;13.712;2022-10-31T08:45:51;33.53;;;15.13;;
59830;SDS011;45711;50.108;13.712;2022-10-31T08:48:20;45.00;;;15.00;;
59830;SDS011;45711;50.108;13.712;2022-10-31T08:50:46;42.40;;;14.68;;
59830;SDS011;45711;50.108;13.712;2022-10-31T08:53:12;54.67;;;14.88;;
59830;SDS011;45711;50.108;13.712;2022-10-31T08:55:44;43.10;;;15.63;;
59830;SDS011;45711;50.108;13.712;2022-10-31T08:58:17;57.85;;;15.90;;
59830;SDS011;45711;50.108;13.712;2022-10-31T09:04:12;54.53;;;16.67;;
59830;SDS011;45711;50.108;13.712;2022-10-31T09:06:46;51.83;;;17.08;;
59830;SDS011;45711;50.108;13.712;2022-10-31T09:09:24;37.63;;;16.08;;
59830;SDS011;45711;50.108;13.712;2022-10-31T09:11:52;41.88;;;17.25;;
59830;SDS011;45711;50.108;13.712;2022-10-31T09:14:18;29.52;;;15.73;;
59830;SDS011;45711;50.108;13.712;2022-10-31T09:16:46;33.92;;;17.90;;
59830;SDS011;45711;50.108;13.712;2022-10-31T09:19:16;22.35;;;13.20;;
59830;SDS011;45711;50.108;13.712;2022-10-31T09:21:51;26.17;;;13.73;;
59830;SDS011;45711;50.108;13.712;2022-10-31T09:24:19;29.13;;;15.15;;
59830;SDS011;45711;50.108;13.712;2022-10-31T09:27:32;27.10;;;14.15;;
59830;SDS011;45711;50.108;13.712;2022-10-31T09:30:09;36.50;;;14.35;;
59830;SDS011;45711;50.108;13.712;2022-10-31T09:32:35;27.08;;;13.90;;
59830;SDS011;45711;50.108;13.712;2022-10-31T09:35:07;28.67;;;13.57;;
59830;SDS011;45711;50.108;13.712;2022-10-31T09:37:42;26.60;;;13.43;;
59830;SDS011;45711;50.108;13.712;2022-10-31T09:40:24;23.25;;;13.48;;
59830;SDS011;45711;50.108;13.712;2022-10-31T09:43:22;21.98;;;12.25;;
59830;SDS011;45711;50.108;13.712;2022-10-31T09:46:11;27.20;;;12.43;;
59830;SDS011;45711;50.108;13.712;2022-10-31T09:48:47;21.77;;;12.23;;
59830;SDS011;45711;50.108;13.712;2022-10-31T09:51:28;20.60;;;12.68;;
59830;SDS011;45711;50.108;13.712;2022-10-31T09:53:59;22.42;;;12.52;;
59830;SDS011;45711;50.108;13.712;2022-10-31T09:56:38;23.42;;;12.02;;
59830;SDS011;45711;50.108;13.712;2022-10-31T09:59:04;22.60;;;12.25;;
59830;SDS011;45711;50.108;13.712;2022-10-31T10:01:42;25.63;;;12.10;;
59830;SDS011;45711;50.108;13.712;2022-10-31T10:04:17;35.25;;;12.75;;
59830;SDS011;45711;50.108;13.712;2022-10-31T10:07:05;25.42;;;12.02;;
59830;SDS011;45711;50.108;13.712;2022-10-31T10:09:52;25.77;;;12.23;;
59830;SDS011;45711;50.108;13.712;2022-10-31T10:12:31;23.45;;;12.35;;
59830;SDS011;45711;50.108;13.712;2022-10-31T10:15:27;28.23;;;12.45;;
59830;SDS011;45711;50.108;13.712;2022-10-31T10:18:20;21.30;;;11.70;;
59830;SDS011;45711;50.108;13.712;2022-10-31T10:20:59;23.58;;;12.13;;
59830;SDS011;45711;50.108;13.712;2022-10-31T10:23:44;31.88;;;13.07;;
59830;SDS011;45711;50.108;13.712;2022-10-31T10:26:19;26.40;;;11.68;;
59830;SDS011;45711;50.108;13.712;2022-10-31T10:28:47;39.42;;;12.63;;
59830;SDS011;45711;50.108;13.712;2022-10-31T10:31:23;25.92;;;11.52;;
59830;SDS011;45711;50.108;13.712;2022-10-31T10:34:01;24.95;;;12.35;;
59830;SDS011;45711;50.108;13.712;2022-10-31T10:36:38;28.20;;;11.60;;
59830;SDS011;45711;50.108;13.712;2022-10-31T10:39:11;28.83;;;11.63;;
59830;SDS011;45711;50.108;13.712;2022-10-31T10:42:10;23.83;;;11.13;;
59830;SDS011;45711;50.108;13.712;2022-10-31T10:44:57;19.27;;;10.75;;
59830;SDS011;45711;50.108;13.712;2022-10-31T10:47:43;33.63;;;13.25;;
59830;SDS011;45711;50.108;13.712;2022-10-31T10:50:31;16.52;;;11.07;;
59830;SDS011;45711;50.108;13.712;2022-10-31T10:53:45;32.00;;;12.75;;
59830;SDS011;45711;50.108;13.712;2022-10-31T10:56:39;24.15;;;11.27;;
59830;SDS011;45711;50.108;13.712;2022-10-31T10:59:19;19.75;;;10.38;;
59830;SDS011;45711;50.108;13.712;2022-10-31T11:02:02;25.38;;;10.93;;
59830;SDS011;45711;50.108;13.712;2022-10-31T11:04:39;24.33;;;11.18;;
59830;SDS011;45711;50.108;13.712;2022-10-31T11:07:10;23.88;;;10.65;;
59830;SDS011;45711;50.108;13.712;2022-10-31T11:09:37;21.48;;;10.05;;
59830;SDS011;45711;50.108;13.712;2022-10-31T11:12:07;24.08;;;10.75;;
59830;SDS011;45711;50.108;13.712;2022-10-31T11:14:44;23.80;;;8.85;;
59830;SDS011;45711;50.108;13.712;2022-10-31T11:17:20;16.83;;;9.25;;
59830;SDS011;45711;50.108;13.712;2022-10-31T11:20:02;18.52;;;8.00;;
59830;SDS011;45711;50.108;13.712;2022-10-31T11:23:00;25.27;;;8.73;;
59830;SDS011;45711;50.108;13.712;2022-10-31T11:25:47;32.08;;;9.00;;
59830;SDS011;45711;50.108;13.712;2022-10-31T11:28:15;16.25;;;9.38;;
59830;SDS011;45711;50.108;13.712;2022-10-31T11:30:49;21.98;;;7.90;;
59830;SDS011;45711;50.108;13.712;2022-10-31T11:33:19;22.23;;;7.63;;
59830;SDS011;45711;50.108;13.712;2022-10-31T11:35:53;27.25;;;8.63;;
59830;SDS011;45711;50.108;13.712;2022-10-31T11:38:40;19.50;;;9.45;;
59830;SDS011;45711;50.108;13.712;2022-10-31T11:41:17;16.50;;;9.15;;
59830;SDS011;45711;50.108;13.712;2022-10-31T11:43:48;21.60;;;9.50;;
59830;SDS011;45711;50.108;13.712;2022-10-31T11:46:22;20.40;;;8.82;;
59830;SDS011;45711;50.108;13.712;2022-10-31T11:48:56;20.48;;;9.20;;
59830;SDS011;45711;50.108;13.712;2022-10-31T11:51:26;22.00;;;9.53;;
59830;SDS011;45711;50.108;13.712;2022-10-31T11:53:59;18.85;;;9.30;;
59830;SDS011;45711;50.108;13.712;2022-10-31T11:56:27;15.05;;;8.68;;
59830;SDS011;45711;50.108;13.712;2022-10-31T11:59:14;24.23;;;7.03;;
59830;SDS011;45711;50.108;13.712;2022-10-31T12:01:49;18.38;;;8.75;;
59830;SDS011;45711;50.108;13.712;2022-10-31T12:04:16;18.00;;;9.23;;
59830;SDS011;45711;50.108;13.712;2022-10-31T12:06:51;18.02;;;8.55;;
59830;SDS011;45711;50.108;13.712;2022-10-31T12:09:20;16.13;;;8.15;;
59830;SDS011;45711;50.108;13.712;2022-10-31T12:11:52;18.45;;;9.35;;
59830;SDS011;45711;50.108;13.712;2022-10-31T12:14:32;13.55;;;6.78;;
59830;SDS011;45711;50.108;13.712;2022-10-31T12:17:13;18.25;;;5.40;;
59830;SDS011;45711;50.108;13.712;2022-10-31T12:19:42;15.53;;;7.63;;
59830;SDS011;45711;50.108;13.712;2022-10-31T12:22:20;16.75;;;4.93;;
59830;SDS011;45711;50.108;13.712;2022-10-31T12:25:16;15.98;;;6.63;;
59830;SDS011;45711;50.108;13.712;2022-10-31T12:28:08;15.10;;;5.45;;
59830;SDS011;45711;50.108;13.712;2022-10-31T12:30:56;13.88;;;7.75;;
59830;SDS011;45711;50.108;13.712;2022-10-31T12:33:42;15.32;;;7.05;;
59830;SDS011;45711;50.108;13.712;2022-10-31T12:36:23;14.93;;;5.03;;
59830;SDS011;45711;50.108;13.712;2022-10-31T12:41:42;15.48;;;6.15;;
59830;SDS011;45711;50.108;13.712;2022-10-31T12:44:15;14.70;;;6.85;;
59830;SDS011;45711;50.108;13.712;2022-10-31T12:47:05;15.18;;;4.85;;
59830;SDS011;45711;50.108;13.712;2022-10-31T12:49:47;14.55;;;5.28;;
59830;SDS011;45711;50.108;13.712;2022-10-31T12:52:29;15.88;;;5.85;;
59830;SDS011;45711;50.108;13.712;2022-10-31T12:55:16;16.38;;;5.50;;
59830;SDS011;45711;50.108;13.712;2022-10-31T12:58:02;12.32;;;6.30;;
59830;SDS011;45711;50.108;13.712;2022-10-31T13:00:35;18.50;;;6.43;;
59830;SDS011;45711;50.108;13.712;2022-10-31T13:03:17;14.65;;;6.60;;
59830;SDS011;45711;50.108;13.712;2022-10-31T13:05:50;11.82;;;5.35;;
59830;SDS011;45711;50.108;13.712;2022-10-31T13:08:20;13.65;;;5.90;;
59830;SDS011;45711;50.108;13.712;2022-10-31T13:10:50;17.38;;;5.97;;
59830;SDS011;45711;50.108;13.712;2022-10-31T13:13:24;11.13;;;5.78;;
59830;SDS011;45711;50.108;13.712;2022-10-31T13:15:55;14.93;;;5.47;;
59830;SDS011;45711;50.108;13.712;2022-10-31T13:18:26;12.27;;;6.13;;
59830;SDS011;45711;50.108;13.712;2022-10-31T13:20:58;18.10;;;5.90;;
59830;SDS011;45711;50.108;13.712;2022-10-31T13:23:27;22.48;;;5.60;;
59830;SDS011;45711;50.108;13.712;2022-10-31T13:25:57;14.38;;;5.80;;
59830;SDS011;45711;50.108;13.712;2022-10-31T13:28:28;12.27;;;6.07;;
59830;SDS011;45711;50.108;13.712;2022-10-31T13:31:01;12.55;;;5.88;;
59830;SDS011;45711;50.108;13.712;2022-10-31T13:33:29;17.50;;;5.55;;
59830;SDS011;45711;50.108;13.712;2022-10-31T13:36:02;12.82;;;5.70;;
59830;SDS011;45711;50.108;13.712;2022-10-31T13:38:40;13.05;;;6.20;;
59830;SDS011;45711;50.108;13.712;2022-10-31T13:41:34;16.63;;;6.20;;
59830;SDS011;45711;50.108;13.712;2022-10-31T13:44:11;9.57;;;5.30;;
59830;SDS011;45711;50.108;13.712;2022-10-31T13:46:40;12.32;;;5.45;;
59830;SDS011;45711;50.108;13.712;2022-10-31T13:52:05;18.85;;;5.80;;
59830;SDS011;45711;50.108;13.712;2022-10-31T13:54:38;15.40;;;5.60;;
59830;SDS011;45711;50.108;13.712;2022-10-31T13:57:12;12.20;;;5.72;;
59830;SDS011;45711;50.108;13.712;2022-10-31T13:59:45;13.65;;;6.10;;
59830;SDS011;45711;50.108;13.712;2022-10-31T14:02:14;10.93;;;5.30;;
59830;SDS011;45711;50.108;13.712;2022-10-31T14:04:46;15.07;;;5.40;;
59830;SDS011;45711;50.108;13.712;2022-10-31T14:07:16;11.90;;;5.10;;
59830;SDS011;45711;50.108;13.712;2022-10-31T14:09:51;16.17;;;5.45;;
59830;SDS011;45711;50.108;13.712;2022-10-31T14:12:24;10.20;;;5.30;;
59830;SDS011;45711;50.108;13.712;2022-10-31T14:14:55;13.55;;;5.63;;
59830;SDS011;45711;50.108;13.712;2022-10-31T14:17:25;11.65;;;5.18;;
59830;SDS011;45711;50.108;13.712;2022-10-31T14:19:58;14.45;;;5.75;;
59830;SDS011;45711;50.108;13.712;2022-10-31T14:22:29;12.40;;;5.68;;
59830;SDS011;45711;50.108;13.712;2022-10-31T14:24:56;16.50;;;5.97;;
59830;SDS011;45711;50.108;13.712;2022-10-31T14:27:32;13.00;;;5.32;;
59830;SDS011;45711;50.108;13.712;2022-10-31T14:30:16;14.30;;;6.20;;
59830;SDS011;45711;50.108;13.712;2022-10-31T14:32:44;12.85;;;5.50;;
59830;SDS011;45711;50.108;13.712;2022-10-31T14:35:16;10.90;;;5.40;;
59830;SDS011;45711;50.108;13.712;2022-10-31T14:37:53;9.85;;;5.18;;
59830;SDS011;45711;50.108;13.712;2022-10-31T14:40:33;13.00;;;6.05;;
59830;SDS011;45711;50.108;13.712;2022-10-31T14:43:11;15.23;;;5.78;;
59830;SDS011;45711;50.108;13.712;2022-10-31T14:46:11;18.42;;;5.85;;
59830;SDS011;45711;50.108;13.712;2022-10-31T14:48:53;15.10;;;6.82;;
59830;SDS011;45711;50.108;13.712;2022-10-31T14:51:39;9.90;;;5.50;;
59830;SDS011;45711;50.108;13.712;2022-10-31T14:54:10;13.07;;;6.07;;
59830;SDS011;45711;50.108;13.712;2022-10-31T14:56:42;18.13;;;6.95;;
59830;SDS011;45711;50.108;13.712;2022-10-31T14:59:13;11.77;;;5.70;;
59830;SDS011;45711;50.108;13.712;2022-10-31T15:01:50;13.93;;;5.78;;
59830;SDS011;45711;50.108;13.712;2022-10-31T15:04:22;13.65;;;5.50;;
59830;SDS011;45711;50.108;13.712;2022-10-31T15:06:57;11.82;;;5.57;;
59830;SDS011;45711;50.108;13.712;2022-10-31T15:09:26;15.73;;;5.38;;
59830;SDS011;45711;50.108;13.712;2022-10-31T15:11:53;12.02;;;5.57;;
59830;SDS011;45711;50.108;13.712;2022-10-31T15:14:23;14.48;;;5.47;;
59830;SDS011;45711;50.108;13.712;2022-10-31T15:16:50;12.27;;;6.05;;
59830;SDS011;45711;50.108;13.712;2022-10-31T15:19:19;10.57;;;5.13;;
59830;SDS011;45711;50.108;13.712;2022-10-31T15:21:49;13.13;;;5.50;;
59830;SDS011;45711;50.108;13.712;2022-10-31T15:24:20;10.23;;;4.97;;
59830;SDS011;45711;50.108;13.712;2022-10-31T15:26:53;11.10;;;5.55;;
59830;SDS011;45711;50.108;13.712;2022-10-31T15:29:20;11.05;;;5.40;;
59830;SDS011;45711;50.108;13.712;2022-10-31T15:31:51;8.63;;;5.45;;
59830;SDS011;45711;50.108;13.712;2022-10-31T15:34:20;10.40;;;5.75;;
59830;SDS011;45711;50.108;13.712;2022-10-31T15:36:52;11.82;;;6.00;;
59830;SDS011;45711;50.108;13.712;2022-10-31T15:39:18;11.27;;;5.85;;